sensor_id;sensor_type;location;lat;lon;timestamp;P1;durP1;ratioP1;P2;durP2;ratioP2
67108;SDS011;54027;50.786;7.058;2023-03-17T00:00:06;5.25;;;2.45;;
67108;SDS011;54027;50.786;7.058;2023-03-17T00:02:34;5.22;;;2.33;;
67108;SDS011;54027;50.786;7.058;2023-03-17T00:05:00;4.43;;;2.58;;
67108;SDS011;54027;50.786;7.058;2023-03-17T00:07:27;3.83;;;2.35;;
67108;SDS011;54027;50.786;7.058;2023-03-17T00:09:52;4.95;;;2.53;;
67108;SDS011;54027;50.786;7.058;2023-03-17T00:12:18;3.40;;;2.10;;
67108;SDS011;54027;50.786;7.058;2023-03-17T00:14:43;3.95;;;2.63;;
67108;SDS011;54027;50.786;7.058;2023-03-17T00:17:11;4.05;;;2.25;;
67108;SDS011;54027;50.786;7.058;2023-03-17T00:19:38;4.68;;;2.35;;
67108;SDS011;54027;50.786;7.058;2023-03-17T00:22:05;3.40;;;1.77;;
67108;SDS011;54027;50.786;7.058;2023-03-17T00:24:39;4.22;;;2.38;;
67108;SDS011;54027;50.786;7.058;2023-03-17T00:27:11;5.07;;;2.35;;
67108;SDS011;54027;50.786;7.058;2023-03-17T00:29:38;4.30;;;2.45;;
67108;SDS011;54027;50.786;7.058;2023-03-17T00:32:04;4.47;;;2.30;;
67108;SDS011;54027;50.786;7.058;2023-03-17T00:34:43;4.47;;;2.58;;
67108;SDS011;54027;50.786;7.058;2023-03-17T00:37:09;6.07;;;2.50;;
67108;SDS011;54027;50.786;7.058;2023-03-17T00:39:37;4.90;;;2.88;;
67108;SDS011;54027;50.786;7.058;2023-03-17T00:42:04;5.68;;;2.25;;
67108;SDS011;54027;50.786;7.058;2023-03-17T00:44:30;4.15;;;2.15;;
67108;SDS011;54027;50.786;7.058;2023-03-17T00:46:57;2.97;;;2.15;;
67108;SDS011;54027;50.786;7.058;2023-03-17T00:49:23;4.55;;;2.53;;
67108;SDS011;54027;50.786;7.058;2023-03-17T00:51:49;6.80;;;2.33;;
67108;SDS011;54027;50.786;7.058;2023-03-17T00:54:16;4.25;;;2.67;;
67108;SDS011;54027;50.786;7.058;2023-03-17T00:56:42;4.10;;;2.58;;
67108;SDS011;54027;50.786;7.058;2023-03-17T00:59:13;6.20;;;2.55;;
67108;SDS011;54027;50.786;7.058;2023-03-17T01:01:45;4.18;;;2.35;;
67108;SDS011;54027;50.786;7.058;2023-03-17T01:04:12;7.57;;;2.90;;
67108;SDS011;54027;50.786;7.058;2023-03-17T01:06:37;6.18;;;2.83;;
67108;SDS011;54027;50.786;7.058;2023-03-17T01:09:03;4.45;;;2.47;;
67108;SDS011;54027;50.786;7.058;2023-03-17T01:11:29;4.05;;;2.20;;
67108;SDS011;54027;50.786;7.058;2023-03-17T01:13:55;4.63;;;2.78;;
67108;SDS011;54027;50.786;7.058;2023-03-17T01:16:23;7.60;;;2.75;;
67108;SDS011;54027;50.786;7.058;2023-03-17T01:18:48;5.70;;;2.10;;
67108;SDS011;54027;50.786;7.058;2023-03-17T01:21:14;5.55;;;2.75;;
67108;SDS011;54027;50.786;7.058;2023-03-17T01:23:40;6.05;;;3.03;;
67108;SDS011;54027;50.786;7.058;2023-03-17T01:26:06;8.52;;;2.78;;
67108;SDS011;54027;50.786;7.058;2023-03-17T01:28:32;5.13;;;2.28;;
67108;SDS011;54027;50.786;7.058;2023-03-17T01:30:58;3.25;;;2.05;;
67108;SDS011;54027;50.786;7.058;2023-03-17T01:33:24;7.82;;;2.63;;
67108;SDS011;54027;50.786;7.058;2023-03-17T01:35:50;7.07;;;3.00;;
67108;SDS011;54027;50.786;7.058;2023-03-17T01:38:16;4.45;;;2.35;;
67108;SDS011;54027;50.786;7.058;2023-03-17T01:40:48;4.45;;;2.40;;
67108;SDS011;54027;50.786;7.058;2023-03-17T01:43:22;4.88;;;2.70;;
67108;SDS011;54027;50.786;7.058;2023-03-17T01:51:20;4.85;;;2.42;;
67108;SDS011;54027;50.786;7.058;2023-03-17T01:53:48;5.13;;;2.40;;
67108;SDS011;54027;50.786;7.058;2023-03-17T01:56:16;5.60;;;2.88;;
67108;SDS011;54027;50.786;7.058;2023-03-17T01:58:43;6.05;;;2.60;;
67108;SDS011;54027;50.786;7.058;2023-03-17T02:01:13;4.68;;;2.50;;
67108;SDS011;54027;50.786;7.058;2023-03-17T02:03:38;5.07;;;3.00;;
67108;SDS011;54027;50.786;7.058;2023-03-17T02:06:04;4.07;;;2.70;;
67108;SDS011;54027;50.786;7.058;2023-03-17T02:08:31;6.43;;;2.85;;
67108;SDS011;54027;50.786;7.058;2023-03-17T02:10:56;5.07;;;2.78;;
67108;SDS011;54027;50.786;7.058;2023-03-17T02:13:23;5.65;;;2.60;;
67108;SDS011;54027;50.786;7.058;2023-03-17T02:15:49;5.35;;;2.83;;
67108;SDS011;54027;50.786;7.058;2023-03-17T02:18:17;5.70;;;3.03;;
67108;SDS011;54027;50.786;7.058;2023-03-17T02:23:16;5.93;;;3.40;;
67108;SDS011;54027;50.786;7.058;2023-03-17T02:25:47;4.88;;;2.90;;
67108;SDS011;54027;50.786;7.058;2023-03-17T02:28:15;7.53;;;3.10;;
67108;SDS011;54027;50.786;7.058;2023-03-17T02:30:45;5.47;;;2.92;;
67108;SDS011;54027;50.786;7.058;2023-03-17T02:33:10;5.35;;;3.40;;
67108;SDS011;54027;50.786;7.058;2023-03-17T02:35:36;5.78;;;3.20;;
67108;SDS011;54027;50.786;7.058;2023-03-17T02:38:02;5.25;;;3.13;;
67108;SDS011;54027;50.786;7.058;2023-03-17T02:40:28;6.35;;;3.50;;
67108;SDS011;54027;50.786;7.058;2023-03-17T02:42:53;5.38;;;2.85;;
67108;SDS011;54027;50.786;7.058;2023-03-17T02:45:19;7.47;;;3.35;;
67108;SDS011;54027;50.786;7.058;2023-03-17T02:47:44;7.03;;;3.25;;
67108;SDS011;54027;50.786;7.058;2023-03-17T02:50:16;5.22;;;2.83;;
67108;SDS011;54027;50.786;7.058;2023-03-17T02:52:47;4.95;;;2.88;;
67108;SDS011;54027;50.786;7.058;2023-03-17T02:55:13;11.35;;;3.22;;
67108;SDS011;54027;50.786;7.058;2023-03-17T02:57:39;4.18;;;2.78;;
67108;SDS011;54027;50.786;7.058;2023-03-17T03:00:05;5.93;;;3.10;;
67108;SDS011;54027;50.786;7.058;2023-03-17T03:02:34;6.65;;;3.15;;
67108;SDS011;54027;50.786;7.058;2023-03-17T03:04:59;6.78;;;3.20;;
67108;SDS011;54027;50.786;7.058;2023-03-17T03:07:25;6.95;;;3.53;;
67108;SDS011;54027;50.786;7.058;2023-03-17T03:09:50;7.68;;;3.22;;
67108;SDS011;54027;50.786;7.058;2023-03-17T03:12:16;5.72;;;3.78;;
67108;SDS011;54027;50.786;7.058;2023-03-17T03:14:41;5.50;;;2.72;;
67108;SDS011;54027;50.786;7.058;2023-03-17T03:17:07;4.95;;;2.65;;
67108;SDS011;54027;50.786;7.058;2023-03-17T03:19:33;6.03;;;3.13;;
67108;SDS011;54027;50.786;7.058;2023-03-17T03:21:59;8.27;;;3.80;;
67108;SDS011;54027;50.786;7.058;2023-03-17T03:24:24;7.68;;;3.67;;
67108;SDS011;54027;50.786;7.058;2023-03-17T03:26:50;5.72;;;3.25;;
67108;SDS011;54027;50.786;7.058;2023-03-17T03:29:15;4.47;;;3.30;;
67108;SDS011;54027;50.786;7.058;2023-03-17T03:31:41;6.03;;;2.97;;
67108;SDS011;54027;50.786;7.058;2023-03-17T03:34:06;4.93;;;3.00;;
67108;SDS011;54027;50.786;7.058;2023-03-17T03:36:32;5.30;;;2.90;;
67108;SDS011;54027;50.786;7.058;2023-03-17T03:38:58;7.93;;;3.67;;
67108;SDS011;54027;50.786;7.058;2023-03-17T03:41:24;6.63;;;3.00;;
67108;SDS011;54027;50.786;7.058;2023-03-17T03:43:51;5.45;;;3.25;;
67108;SDS011;54027;50.786;7.058;2023-03-17T03:46:16;6.55;;;3.67;;
67108;SDS011;54027;50.786;7.058;2023-03-17T03:48:42;5.85;;;3.08;;
67108;SDS011;54027;50.786;7.058;2023-03-17T03:51:07;5.25;;;3.33;;
67108;SDS011;54027;50.786;7.058;2023-03-17T03:53:33;7.47;;;2.95;;
67108;SDS011;54027;50.786;7.058;2023-03-17T03:55:58;5.18;;;3.13;;
67108;SDS011;54027;50.786;7.058;2023-03-17T03:58:24;4.95;;;3.05;;
67108;SDS011;54027;50.786;7.058;2023-03-17T04:00:49;5.90;;;3.78;;
67108;SDS011;54027;50.786;7.058;2023-03-17T04:03:15;6.50;;;4.05;;
67108;SDS011;54027;50.786;7.058;2023-03-17T04:05:42;5.93;;;3.20;;
67108;SDS011;54027;50.786;7.058;2023-03-17T04:08:07;8.90;;;3.00;;
67108;SDS011;54027;50.786;7.058;2023-03-17T04:10:33;5.32;;;3.55;;
67108;SDS011;54027;50.786;7.058;2023-03-17T04:12:58;7.53;;;3.85;;
67108;SDS011;54027;50.786;7.058;2023-03-17T04:15:24;7.15;;;3.97;;
67108;SDS011;54027;50.786;7.058;2023-03-17T04:17:50;5.75;;;3.22;;
67108;SDS011;54027;50.786;7.058;2023-03-17T04:20:16;5.43;;;3.65;;
67108;SDS011;54027;50.786;7.058;2023-03-17T04:22:42;4.05;;;3.10;;
67108;SDS011;54027;50.786;7.058;2023-03-17T04:25:09;5.70;;;3.20;;
67108;SDS011;54027;50.786;7.058;2023-03-17T04:27:36;5.70;;;3.08;;
67108;SDS011;54027;50.786;7.058;2023-03-17T04:30:02;5.25;;;2.80;;
67108;SDS011;54027;50.786;7.058;2023-03-17T04:32:28;6.32;;;4.05;;
67108;SDS011;54027;50.786;7.058;2023-03-17T04:34:53;6.93;;;3.90;;
67108;SDS011;54027;50.786;7.058;2023-03-17T04:37:19;5.78;;;3.85;;
67108;SDS011;54027;50.786;7.058;2023-03-17T04:39:44;7.00;;;3.42;;
67108;SDS011;54027;50.786;7.058;2023-03-17T04:42:10;6.35;;;4.03;;
67108;SDS011;54027;50.786;7.058;2023-03-17T04:44:35;8.55;;;3.60;;
67108;SDS011;54027;50.786;7.058;2023-03-17T04:47:01;6.47;;;3.45;;
67108;SDS011;54027;50.786;7.058;2023-03-17T04:49:27;6.15;;;4.05;;
67108;SDS011;54027;50.786;7.058;2023-03-17T04:51:52;6.03;;;3.80;;
67108;SDS011;54027;50.786;7.058;2023-03-17T04:54:18;6.15;;;3.67;;
67108;SDS011;54027;50.786;7.058;2023-03-17T04:56:43;7.15;;;3.75;;
67108;SDS011;54027;50.786;7.058;2023-03-17T04:59:09;9.55;;;3.95;;
67108;SDS011;54027;50.786;7.058;2023-03-17T05:01:35;8.45;;;4.35;;
67108;SDS011;54027;50.786;7.058;2023-03-17T05:04:00;5.22;;;3.38;;
67108;SDS011;54027;50.786;7.058;2023-03-17T05:06:26;5.50;;;3.40;;
67108;SDS011;54027;50.786;7.058;2023-03-17T05:08:51;5.32;;;3.97;;
67108;SDS011;54027;50.786;7.058;2023-03-17T05:11:17;7.45;;;3.80;;
67108;SDS011;54027;50.786;7.058;2023-03-17T05:13:43;5.30;;;3.40;;
67108;SDS011;54027;50.786;7.058;2023-03-17T05:16:08;9.23;;;3.80;;
67108;SDS011;54027;50.786;7.058;2023-03-17T05:18:34;5.93;;;3.70;;
67108;SDS011;54027;50.786;7.058;2023-03-17T05:21:00;6.55;;;3.35;;
67108;SDS011;54027;50.786;7.058;2023-03-17T05:23:26;5.80;;;3.80;;
67108;SDS011;54027;50.786;7.058;2023-03-17T05:25:51;6.18;;;3.88;;
67108;SDS011;54027;50.786;7.058;2023-03-17T05:28:18;6.10;;;4.10;;
67108;SDS011;54027;50.786;7.058;2023-03-17T05:30:44;5.88;;;3.97;;
67108;SDS011;54027;50.786;7.058;2023-03-17T05:33:12;4.43;;;2.95;;
67108;SDS011;54027;50.786;7.058;2023-03-17T05:35:38;6.05;;;4.10;;
67108;SDS011;54027;50.786;7.058;2023-03-17T05:38:04;5.78;;;3.30;;
67108;SDS011;54027;50.786;7.058;2023-03-17T05:40:30;6.43;;;3.35;;
67108;SDS011;54027;50.786;7.058;2023-03-17T05:42:56;6.07;;;3.38;;
67108;SDS011;54027;50.786;7.058;2023-03-17T05:45:21;6.32;;;3.40;;
67108;SDS011;54027;50.786;7.058;2023-03-17T05:47:47;5.57;;;3.65;;
67108;SDS011;54027;50.786;7.058;2023-03-17T05:50:12;8.65;;;3.50;;
67108;SDS011;54027;50.786;7.058;2023-03-17T05:52:38;7.60;;;3.35;;
67108;SDS011;54027;50.786;7.058;2023-03-17T05:55:04;5.32;;;3.45;;
67108;SDS011;54027;50.786;7.058;2023-03-17T05:57:32;8.23;;;3.53;;
67108;SDS011;54027;50.786;7.058;2023-03-17T05:59:57;7.22;;;4.07;;
67108;SDS011;54027;50.786;7.058;2023-03-17T06:02:22;6.75;;;3.60;;
67108;SDS011;54027;50.786;7.058;2023-03-17T06:04:48;7.85;;;3.55;;
67108;SDS011;54027;50.786;7.058;2023-03-17T06:07:13;8.60;;;3.92;;
67108;SDS011;54027;50.786;7.058;2023-03-17T06:09:39;5.43;;;3.50;;
67108;SDS011;54027;50.786;7.058;2023-03-17T06:12:05;5.25;;;3.72;;
67108;SDS011;54027;50.786;7.058;2023-03-17T06:14:31;6.90;;;4.05;;
67108;SDS011;54027;50.786;7.058;2023-03-17T06:16:57;7.78;;;3.75;;
67108;SDS011;54027;50.786;7.058;2023-03-17T06:19:22;5.25;;;3.38;;
67108;SDS011;54027;50.786;7.058;2023-03-17T06:21:48;5.72;;;3.40;;
67108;SDS011;54027;50.786;7.058;2023-03-17T06:24:13;7.28;;;3.53;;
67108;SDS011;54027;50.786;7.058;2023-03-17T06:26:38;8.20;;;3.70;;
67108;SDS011;54027;50.786;7.058;2023-03-17T06:29:04;6.07;;;3.35;;
67108;SDS011;54027;50.786;7.058;2023-03-17T06:31:33;5.40;;;3.13;;
67108;SDS011;54027;50.786;7.058;2023-03-17T06:34:00;4.68;;;3.00;;
67108;SDS011;54027;50.786;7.058;2023-03-17T06:36:25;4.93;;;3.05;;
67108;SDS011;54027;50.786;7.058;2023-03-17T06:38:51;7.72;;;3.33;;
67108;SDS011;54027;50.786;7.058;2023-03-17T06:41:16;10.02;;;3.60;;
67108;SDS011;54027;50.786;7.058;2023-03-17T06:43:42;6.90;;;2.78;;
67108;SDS011;54027;50.786;7.058;2023-03-17T06:46:07;6.57;;;3.33;;
67108;SDS011;54027;50.786;7.058;2023-03-17T06:48:33;5.45;;;2.72;;
67108;SDS011;54027;50.786;7.058;2023-03-17T06:50:59;6.35;;;3.08;;
67108;SDS011;54027;50.786;7.058;2023-03-17T06:53:24;4.78;;;2.85;;
67108;SDS011;54027;50.786;7.058;2023-03-17T06:55:50;6.03;;;2.88;;
67108;SDS011;54027;50.786;7.058;2023-03-17T06:58:15;6.15;;;2.63;;
67108;SDS011;54027;50.786;7.058;2023-03-17T07:00:41;4.78;;;3.00;;
67108;SDS011;54027;50.786;7.058;2023-03-17T07:03:09;7.00;;;2.80;;
67108;SDS011;54027;50.786;7.058;2023-03-17T07:05:35;5.00;;;2.78;;
67108;SDS011;54027;50.786;7.058;2023-03-17T07:08:02;5.90;;;2.58;;
67108;SDS011;54027;50.786;7.058;2023-03-17T07:10:27;2.90;;;2.15;;
67108;SDS011;54027;50.786;7.058;2023-03-17T07:12:52;6.32;;;2.58;;
67108;SDS011;54027;50.786;7.058;2023-03-17T07:15:18;4.53;;;2.60;;
67108;SDS011;54027;50.786;7.058;2023-03-17T07:17:44;7.28;;;3.30;;
67108;SDS011;54027;50.786;7.058;2023-03-17T07:20:11;8.52;;;4.15;;
67108;SDS011;54027;50.786;7.058;2023-03-17T07:22:37;6.13;;;4.60;;
67108;SDS011;54027;50.786;7.058;2023-03-17T07:25:03;7.95;;;2.92;;
67108;SDS011;54027;50.786;7.058;2023-03-17T07:27:29;4.65;;;2.50;;
67108;SDS011;54027;50.786;7.058;2023-03-17T07:29:55;7.18;;;3.10;;
67108;SDS011;54027;50.786;7.058;2023-03-17T07:32:20;5.50;;;2.95;;
67108;SDS011;54027;50.786;7.058;2023-03-17T07:34:46;5.18;;;2.67;;
67108;SDS011;54027;50.786;7.058;2023-03-17T07:37:11;6.50;;;2.97;;
67108;SDS011;54027;50.786;7.058;2023-03-17T07:39:37;5.47;;;2.30;;
67108;SDS011;54027;50.786;7.058;2023-03-17T07:42:03;5.63;;;2.63;;
67108;SDS011;54027;50.786;7.058;2023-03-17T07:44:28;4.88;;;2.65;;
67108;SDS011;54027;50.786;7.058;2023-03-17T07:46:55;4.90;;;2.22;;
67108;SDS011;54027;50.786;7.058;2023-03-17T07:49:20;5.38;;;2.33;;
67108;SDS011;54027;50.786;7.058;2023-03-17T07:51:46;4.47;;;2.53;;
67108;SDS011;54027;50.786;7.058;2023-03-17T07:54:12;5.28;;;2.60;;
67108;SDS011;54027;50.786;7.058;2023-03-17T07:56:38;3.63;;;2.70;;
67108;SDS011;54027;50.786;7.058;2023-03-17T07:59:04;4.50;;;2.40;;
67108;SDS011;54027;50.786;7.058;2023-03-17T08:01:32;5.20;;;2.53;;
67108;SDS011;54027;50.786;7.058;2023-03-17T08:03:59;7.18;;;3.30;;
67108;SDS011;54027;50.786;7.058;2023-03-17T08:06:24;5.25;;;2.85;;
67108;SDS011;54027;50.786;7.058;2023-03-17T08:08:51;3.60;;;2.13;;
67108;SDS011;54027;50.786;7.058;2023-03-17T08:11:17;4.13;;;2.60;;
67108;SDS011;54027;50.786;7.058;2023-03-17T08:13:44;6.65;;;2.53;;
67108;SDS011;54027;50.786;7.058;2023-03-17T08:16:09;7.00;;;3.25;;
67108;SDS011;54027;50.786;7.058;2023-03-17T08:18:36;5.82;;;2.28;;
67108;SDS011;54027;50.786;7.058;2023-03-17T08:21:01;8.52;;;2.50;;
67108;SDS011;54027;50.786;7.058;2023-03-17T08:23:27;6.75;;;2.50;;
67108;SDS011;54027;50.786;7.058;2023-03-17T08:25:56;5.05;;;2.30;;
67108;SDS011;54027;50.786;7.058;2023-03-17T08:28:22;8.35;;;2.38;;
67108;SDS011;54027;50.786;7.058;2023-03-17T08:30:47;5.88;;;2.75;;
67108;SDS011;54027;50.786;7.058;2023-03-17T08:33:14;5.65;;;2.47;;
67108;SDS011;54027;50.786;7.058;2023-03-17T08:35:40;5.07;;;2.10;;
67108;SDS011;54027;50.786;7.058;2023-03-17T08:38:06;4.05;;;2.35;;
67108;SDS011;54027;50.786;7.058;2023-03-17T08:40:32;7.07;;;2.47;;
67108;SDS011;54027;50.786;7.058;2023-03-17T08:42:58;3.90;;;2.25;;
67108;SDS011;54027;50.786;7.058;2023-03-17T08:45:23;4.05;;;2.60;;
67108;SDS011;54027;50.786;7.058;2023-03-17T08:47:48;3.85;;;2.25;;
67108;SDS011;54027;50.786;7.058;2023-03-17T08:50:16;7.78;;;2.80;;
67108;SDS011;54027;50.786;7.058;2023-03-17T08:52:44;4.75;;;2.63;;
67108;SDS011;54027;50.786;7.058;2023-03-17T08:55:11;6.30;;;2.63;;
67108;SDS011;54027;50.786;7.058;2023-03-17T08:57:37;5.45;;;2.85;;
67108;SDS011;54027;50.786;7.058;2023-03-17T09:00:03;3.85;;;2.55;;
67108;SDS011;54027;50.786;7.058;2023-03-17T09:02:35;5.47;;;2.45;;
67108;SDS011;54027;50.786;7.058;2023-03-17T09:05:02;5.82;;;2.33;;
67108;SDS011;54027;50.786;7.058;2023-03-17T09:07:29;5.75;;;2.30;;
67108;SDS011;54027;50.786;7.058;2023-03-17T09:09:54;6.53;;;2.40;;
67108;SDS011;54027;50.786;7.058;2023-03-17T09:12:21;6.03;;;2.55;;
67108;SDS011;54027;50.786;7.058;2023-03-17T09:14:46;5.07;;;2.38;;
67108;SDS011;54027;50.786;7.058;2023-03-17T09:17:13;4.72;;;2.30;;
67108;SDS011;54027;50.786;7.058;2023-03-17T09:19:39;4.30;;;2.42;;
67108;SDS011;54027;50.786;7.058;2023-03-17T09:22:05;5.93;;;2.55;;
67108;SDS011;54027;50.786;7.058;2023-03-17T09:24:31;8.13;;;2.60;;
67108;SDS011;54027;50.786;7.058;2023-03-17T09:26:57;3.88;;;2.60;;
67108;SDS011;54027;50.786;7.058;2023-03-17T09:29:24;4.25;;;2.38;;
67108;SDS011;54027;50.786;7.058;2023-03-17T09:31:50;3.33;;;2.35;;
67108;SDS011;54027;50.786;7.058;2023-03-17T09:34:16;4.88;;;2.15;;
67108;SDS011;54027;50.786;7.058;2023-03-17T09:36:42;6.15;;;2.65;;
67108;SDS011;54027;50.786;7.058;2023-03-17T09:39:07;4.80;;;2.08;;
67108;SDS011;54027;50.786;7.058;2023-03-17T09:49:08;6.20;;;2.17;;
67108;SDS011;54027;50.786;7.058;2023-03-17T09:51:37;4.03;;;2.03;;
67108;SDS011;54027;50.786;7.058;2023-03-17T09:54:05;5.05;;;3.20;;
67108;SDS011;54027;50.786;7.058;2023-03-17T09:56:35;4.43;;;2.17;;
67108;SDS011;54027;50.786;7.058;2023-03-17T09:59:09;3.75;;;2.22;;
67108;SDS011;54027;50.786;7.058;2023-03-17T10:01:46;4.65;;;2.50;;
67108;SDS011;54027;50.786;7.058;2023-03-17T10:04:18;4.90;;;2.50;;
67108;SDS011;54027;50.786;7.058;2023-03-17T10:06:44;4.65;;;2.38;;
67108;SDS011;54027;50.786;7.058;2023-03-17T10:11:49;7.03;;;2.42;;
67108;SDS011;54027;50.786;7.058;2023-03-17T10:19:54;7.07;;;2.30;;
67108;SDS011;54027;50.786;7.058;2023-03-17T10:22:41;3.75;;;2.17;;
67108;SDS011;54027;50.786;7.058;2023-03-17T10:25:29;5.05;;;2.35;;
67108;SDS011;54027;50.786;7.058;2023-03-17T10:27:58;7.22;;;2.17;;
67108;SDS011;54027;50.786;7.058;2023-03-17T10:30:28;4.60;;;2.40;;
67108;SDS011;54027;50.786;7.058;2023-03-17T10:32:57;10.50;;;2.75;;
67108;SDS011;54027;50.786;7.058;2023-03-17T10:35:24;4.28;;;2.50;;
67108;SDS011;54027;50.786;7.058;2023-03-17T10:37:50;6.30;;;2.45;;
67108;SDS011;54027;50.786;7.058;2023-03-17T10:40:20;4.00;;;2.30;;
67108;SDS011;54027;50.786;7.058;2023-03-17T10:42:52;3.47;;;1.92;;
67108;SDS011;54027;50.786;7.058;2023-03-17T10:45:28;4.72;;;2.22;;
67108;SDS011;54027;50.786;7.058;2023-03-17T10:47:56;7.40;;;2.30;;
67108;SDS011;54027;50.786;7.058;2023-03-17T10:50:27;3.95;;;2.30;;
67108;SDS011;54027;50.786;7.058;2023-03-17T10:52:57;5.47;;;2.47;;
67108;SDS011;54027;50.786;7.058;2023-03-17T10:55:52;7.60;;;2.35;;
67108;SDS011;54027;50.786;7.058;2023-03-17T10:58:21;3.95;;;2.05;;
67108;SDS011;54027;50.786;7.058;2023-03-17T11:01:03;3.95;;;2.33;;
67108;SDS011;54027;50.786;7.058;2023-03-17T11:03:40;3.60;;;2.10;;
67108;SDS011;54027;50.786;7.058;2023-03-17T11:06:07;4.57;;;2.38;;
67108;SDS011;54027;50.786;7.058;2023-03-17T11:08:44;6.13;;;2.30;;
67108;SDS011;54027;50.786;7.058;2023-03-17T11:14:00;4.15;;;2.65;;
67108;SDS011;54027;50.786;7.058;2023-03-17T11:16:27;6.97;;;2.20;;
67108;SDS011;54027;50.786;7.058;2023-03-17T11:18:56;5.00;;;2.85;;
67108;SDS011;54027;50.786;7.058;2023-03-17T11:21:30;5.47;;;2.30;;
67108;SDS011;54027;50.786;7.058;2023-03-17T11:31:42;6.55;;;2.10;;
67108;SDS011;54027;50.786;7.058;2023-03-17T11:34:18;6.68;;;2.45;;
67108;SDS011;54027;50.786;7.058;2023-03-17T11:36:54;4.93;;;2.55;;
67108;SDS011;54027;50.786;7.058;2023-03-17T11:42:19;4.13;;;2.33;;
67108;SDS011;54027;50.786;7.058;2023-03-17T11:55:44;4.53;;;2.20;;
67108;SDS011;54027;50.786;7.058;2023-03-17T11:58:25;7.57;;;2.38;;
67108;SDS011;54027;50.786;7.058;2023-03-17T12:00:57;5.43;;;1.90;;
67108;SDS011;54027;50.786;7.058;2023-03-17T12:05:59;6.43;;;2.20;;
67108;SDS011;54027;50.786;7.058;2023-03-17T12:08:40;5.00;;;2.05;;
67108;SDS011;54027;50.786;7.058;2023-03-17T12:11:15;5.45;;;2.45;;
67108;SDS011;54027;50.786;7.058;2023-03-17T12:13:47;5.15;;;1.90;;
67108;SDS011;54027;50.786;7.058;2023-03-17T12:16:30;10.00;;;2.33;;
67108;SDS011;54027;50.786;7.058;2023-03-17T12:24:30;5.22;;;2.00;;
67108;SDS011;54027;50.786;7.058;2023-03-17T12:27:02;5.72;;;2.00;;
67108;SDS011;54027;50.786;7.058;2023-03-17T12:30:09;2.83;;;2.08;;
67108;SDS011;54027;50.786;7.058;2023-03-17T12:35:21;8.88;;;2.40;;
67108;SDS011;54027;50.786;7.058;2023-03-17T12:37:59;5.75;;;2.33;;
67108;SDS011;54027;50.786;7.058;2023-03-17T12:46:30;7.20;;;1.95;;
67108;SDS011;54027;50.786;7.058;2023-03-17T12:51:41;4.70;;;2.10;;
67108;SDS011;54027;50.786;7.058;2023-03-17T12:54:19;7.32;;;2.05;;
67108;SDS011;54027;50.786;7.058;2023-03-17T12:56:51;7.70;;;2.10;;
67108;SDS011;54027;50.786;7.058;2023-03-17T12:59:18;6.10;;;2.55;;
67108;SDS011;54027;50.786;7.058;2023-03-17T13:01:53;3.40;;;1.80;;
67108;SDS011;54027;50.786;7.058;2023-03-17T13:04:28;6.47;;;2.10;;
67108;SDS011;54027;50.786;7.058;2023-03-17T13:07:07;4.15;;;1.73;;
67108;SDS011;54027;50.786;7.058;2023-03-17T13:15:01;6.15;;;1.88;;
67108;SDS011;54027;50.786;7.058;2023-03-17T13:22:40;5.45;;;1.98;;
67108;SDS011;54027;50.786;7.058;2023-03-17T13:25:29;3.72;;;1.90;;
67108;SDS011;54027;50.786;7.058;2023-03-17T13:28:15;4.55;;;1.50;;
67108;SDS011;54027;50.786;7.058;2023-03-17T13:31:02;4.55;;;1.70;;
67108;SDS011;54027;50.786;7.058;2023-03-17T13:33:33;7.30;;;2.00;;
67108;SDS011;54027;50.786;7.058;2023-03-17T13:44:56;5.50;;;1.73;;
67108;SDS011;54027;50.786;7.058;2023-03-17T13:47:40;7.03;;;1.90;;
67108;SDS011;54027;50.786;7.058;2023-03-17T13:55:28;3.13;;;1.70;;
67108;SDS011;54027;50.786;7.058;2023-03-17T14:00:30;3.42;;;1.90;;
67108;SDS011;54027;50.786;7.058;2023-03-17T14:03:04;7.43;;;1.80;;
67108;SDS011;54027;50.786;7.058;2023-03-17T14:05:36;5.60;;;2.20;;
67108;SDS011;54027;50.786;7.058;2023-03-17T14:08:04;5.35;;;1.88;;
67108;SDS011;54027;50.786;7.058;2023-03-17T14:10:39;5.05;;;1.55;;
67108;SDS011;54027;50.786;7.058;2023-03-17T14:15:57;6.57;;;2.00;;
67108;SDS011;54027;50.786;7.058;2023-03-17T14:18:46;5.38;;;1.67;;
67108;SDS011;54027;50.786;7.058;2023-03-17T14:21:19;6.60;;;2.55;;
67108;SDS011;54027;50.786;7.058;2023-03-17T14:23:56;4.72;;;2.25;;
67108;SDS011;54027;50.786;7.058;2023-03-17T14:26:30;4.38;;;2.08;;
67108;SDS011;54027;50.786;7.058;2023-03-17T14:29:00;4.20;;;1.80;;
67108;SDS011;54027;50.786;7.058;2023-03-17T14:31:28;4.15;;;1.55;;
67108;SDS011;54027;50.786;7.058;2023-03-17T14:33:56;6.40;;;2.10;;
67108;SDS011;54027;50.786;7.058;2023-03-17T14:36:23;4.47;;;2.00;;
67108;SDS011;54027;50.786;7.058;2023-03-17T14:38:50;7.03;;;2.42;;
67108;SDS011;54027;50.786;7.058;2023-03-17T14:41:19;6.07;;;2.72;;
67108;SDS011;54027;50.786;7.058;2023-03-17T14:43:46;4.35;;;2.00;;
67108;SDS011;54027;50.786;7.058;2023-03-17T14:46:17;5.32;;;2.42;;
67108;SDS011;54027;50.786;7.058;2023-03-17T14:48:58;4.15;;;1.88;;
67108;SDS011;54027;50.786;7.058;2023-03-17T14:51:36;6.28;;;1.90;;
67108;SDS011;54027;50.786;7.058;2023-03-17T14:54:15;6.07;;;2.20;;
67108;SDS011;54027;50.786;7.058;2023-03-17T14:56:57;7.35;;;2.30;;
67108;SDS011;54027;50.786;7.058;2023-03-17T14:59:30;5.80;;;2.22;;
67108;SDS011;54027;50.786;7.058;2023-03-17T15:01:58;4.57;;;2.15;;
67108;SDS011;54027;50.786;7.058;2023-03-17T15:04:30;6.18;;;2.00;;
67108;SDS011;54027;50.786;7.058;2023-03-17T15:07:02;4.60;;;1.50;;
67108;SDS011;54027;50.786;7.058;2023-03-17T15:09:35;5.63;;;1.67;;
67108;SDS011;54027;50.786;7.058;2023-03-17T15:12:04;3.08;;;1.70;;
67108;SDS011;54027;50.786;7.058;2023-03-17T15:14:49;4.78;;;2.13;;
67108;SDS011;54027;50.786;7.058;2023-03-17T15:17:18;3.85;;;1.60;;
67108;SDS011;54027;50.786;7.058;2023-03-17T15:19:47;3.22;;;1.90;;
67108;SDS011;54027;50.786;7.058;2023-03-17T15:24:49;4.45;;;1.92;;
67108;SDS011;54027;50.786;7.058;2023-03-17T15:27:22;5.30;;;2.22;;
67108;SDS011;54027;50.786;7.058;2023-03-17T15:29:47;5.63;;;2.15;;
67108;SDS011;54027;50.786;7.058;2023-03-17T15:32:20;4.72;;;1.73;;
67108;SDS011;54027;50.786;7.058;2023-03-17T15:34:48;5.30;;;1.98;;
67108;SDS011;54027;50.786;7.058;2023-03-17T15:37:16;5.88;;;1.88;;
67108;SDS011;54027;50.786;7.058;2023-03-17T15:39:52;4.93;;;2.53;;
67108;SDS011;54027;50.786;7.058;2023-03-17T15:42:21;3.28;;;1.90;;
67108;SDS011;54027;50.786;7.058;2023-03-17T15:44:48;5.22;;;2.28;;
67108;SDS011;54027;50.786;7.058;2023-03-17T15:47:15;6.63;;;1.73;;
67108;SDS011;54027;50.786;7.058;2023-03-17T15:49:43;8.35;;;2.28;;
67108;SDS011;54027;50.786;7.058;2023-03-17T15:52:14;5.20;;;2.40;;
67108;SDS011;54027;50.786;7.058;2023-03-17T15:54:40;4.63;;;2.05;;
67108;SDS011;54027;50.786;7.058;2023-03-17T15:57:07;3.55;;;2.05;;
67108;SDS011;54027;50.786;7.058;2023-03-17T15:59:34;8.63;;;2.42;;
67108;SDS011;54027;50.786;7.058;2023-03-17T16:02:00;5.85;;;1.80;;
67108;SDS011;54027;50.786;7.058;2023-03-17T16:04:25;5.70;;;2.00;;
67108;SDS011;54027;50.786;7.058;2023-03-17T16:06:51;5.57;;;2.00;;
67108;SDS011;54027;50.786;7.058;2023-03-17T16:09:16;8.30;;;2.10;;
67108;SDS011;54027;50.786;7.058;2023-03-17T16:11:42;4.05;;;1.52;;
67108;SDS011;54027;50.786;7.058;2023-03-17T16:14:08;8.43;;;2.33;;
67108;SDS011;54027;50.786;7.058;2023-03-17T16:19:00;6.38;;;3.20;;
67108;SDS011;54027;50.786;7.058;2023-03-17T16:21:26;7.95;;;2.90;;
67108;SDS011;54027;50.786;7.058;2023-03-17T16:23:53;4.22;;;2.25;;
67108;SDS011;54027;50.786;7.058;2023-03-17T16:26:19;6.10;;;3.17;;
67108;SDS011;54027;50.786;7.058;2023-03-17T16:28:45;6.05;;;2.30;;
67108;SDS011;54027;50.786;7.058;2023-03-17T16:31:21;7.88;;;2.80;;
67108;SDS011;54027;50.786;7.058;2023-03-17T16:33:54;4.28;;;2.05;;
67108;SDS011;54027;50.786;7.058;2023-03-17T16:36:21;4.63;;;2.17;;